Karachi Weather



Karachi's Current Weather

Temprature 32.9o haze

haze

Rain: 0 %

Min Temprature32.9o
Max Temprature32.9o
Humidity58
Wind Speed7.72 m/h
Sun Rise05:55:26
Sun Set19:20:35
Current Time: 24-Jul-2021 15:44:10
Lat/Lon: 24.9056, 67.0822




Karachi's Geo Location



Karachi's Weather Forecast

Time Overall Temp Min Temp Max Temp Humidity Wind Speed Rain
24-Jul-2021 (Sat)
17:00:00 broken clouds 32.900 29.530 32.900 58 7.78 m/h 0 %
20:00:00 broken clouds 31.490 28.660 31.490 66 7.23 m/h 0 %
23:00:00 overcast clouds 29.810 28.270 29.810 74 7.67 m/h 0 %
25-Jul-2021 (Sun)
02:00:00 overcast clouds 27.970 27.970 27.970 84 8.39 m/h 0 %
05:00:00 overcast clouds 27.850 27.850 27.850 85 8.43 m/h 0 %
08:00:00 broken clouds 28.760 28.760 28.760 79 9.7 m/h 0 %
11:00:00 broken clouds 30.780 30.780 30.780 70 9.58 m/h 0 %
14:00:00 broken clouds 31.190 31.190 31.190 69 10.14 m/h 0 %
17:00:00 broken clouds 30.160 30.160 30.160 72 9.87 m/h 0 %
20:00:00 overcast clouds 28.550 28.550 28.550 79 8.29 m/h 0 %
23:00:00 overcast clouds 28.290 28.290 28.290 80 8.23 m/h 0 %
26-Jul-2021 (Mon)
02:00:00 overcast clouds 28.070 28.070 28.070 81 7.83 m/h 0 %
05:00:00 light rain 28.040 28.040 28.040 83 8.01 m/h 14 %
08:00:00 light rain 28.520 28.520 28.520 81 9.1 m/h 14 %
11:00:00 overcast clouds 30.660 30.660 30.660 70 9.53 m/h 0 %
14:00:00 overcast clouds 31.440 31.440 31.440 68 9.34 m/h 0 %
17:00:00 overcast clouds 30.100 30.100 30.100 74 9.53 m/h 0 %
20:00:00 overcast clouds 28.710 28.710 28.710 82 9.25 m/h 0 %
23:00:00 light rain 28.410 28.410 28.410 82 8.74 m/h 13 %
27-Jul-2021 (Tue)
02:00:00 light rain 28.100 28.100 28.100 84 8.87 m/h 13 %
05:00:00 light rain 28.040 28.040 28.040 84 8.48 m/h 14 %
08:00:00 light rain 28.460 28.460 28.460 82 9.34 m/h 14 %
11:00:00 light rain 29.420 29.420 29.420 77 9.71 m/h 14 %
14:00:00 light rain 29.930 29.930 29.930 74 9.53 m/h 11 %
17:00:00 light rain 29.220 29.220 29.220 77 8.13 m/h 16 %
20:00:00 overcast clouds 28.420 28.420 28.420 82 8.4 m/h 0 %
23:00:00 light rain 28.140 28.140 28.140 83 7.63 m/h 14 %
28-Jul-2021 (Wed)
02:00:00 light rain 27.830 27.830 27.830 86 9.27 m/h 11 %
05:00:00 overcast clouds 27.750 27.750 27.750 86 8.67 m/h 0 %
08:00:00 light rain 28.310 28.310 28.310 82 9.77 m/h 19 %
11:00:00 light rain 29.540 29.540 29.540 76 10.23 m/h 25 %
14:00:00 light rain 30.070 30.070 30.070 73 10.19 m/h 18 %
17:00:00 overcast clouds 29.220 29.220 29.220 77 10.05 m/h 0 %
20:00:00 overcast clouds 28.360 28.360 28.360 82 10.31 m/h 0 %
23:00:00 light rain 28.040 28.040 28.040 84 8.23 m/h 15 %
29-Jul-2021 (Thu)
02:00:00 light rain 27.820 27.820 27.820 86 8.55 m/h 14 %
05:00:00 overcast clouds 27.710 27.710 27.710 87 8.71 m/h 0 %
08:00:00 light rain 28.350 28.350 28.350 85 9.41 m/h 10 %
11:00:00 overcast clouds 30.360 30.360 30.360 74 9.06 m/h 0 %
14:00:00 overcast clouds 30.730 30.730 30.730 72 8.95 m/h 0 %

Famous Cities (60)